Time;durP1;ratioP1;P1;durP2;ratioP2;P2;SDS_P1;SDS_P2;PMS_P1;PMS_P2;Temp;Humidity;BMP_temperature;BMP_pressure;BME280_temperature;BME280_humidity;BME280_pressure;Samples;Min_cycle;Max_cycle;Signal;HPM_P1;HPM_P2
2021/04/10 00:00:11;;;;;;;4.80;1.63;;;;;;;12.53;49.00;100023.97;5009866;28;20137;-70
2021/04/10 00:02:37;;;;;;;3.53;1.70;;;;;;;12.57;48.70;100032.41;4992920;28;20038;-69
2021/04/10 00:05:06;;;;;;;4.45;1.67;;;;;;;12.58;48.68;100022.63;5010006;28;20380;-70
2021/04/10 00:07:31;;;;;;;4.35;1.70;;;;;;;12.62;49.01;100019.44;5010833;28;20025;-70
2021/04/10 00:09:56;;;;;;;4.70;1.67;;;;;;;12.65;48.91;100016.44;5010379;28;20511;-70
2021/04/10 00:12:21;;;;;;;3.67;1.63;;;;;;;12.67;48.61;100016.25;5009300;28;20065;-69
2021/04/10 00:14:47;;;;;;;5.53;1.80;;;;;;;12.80;48.15;100019.16;5010589;28;20053;-70
2021/04/10 00:17:12;;;;;;;6.82;2.00;;;;;;;12.85;48.17;100006.19;5010060;28;20037;-70
2021/04/10 00:19:37;;;;;;;7.90;1.80;;;;;;;12.86;48.35;100010.47;5006853;28;20073;-69
2021/04/10 00:22:03;;;;;;;9.82;2.67;;;;;;;12.92;47.57;100015.06;5006453;28;20034;-70
2021/04/10 00:24:28;;;;;;;5.25;1.98;;;;;;;12.93;47.70;100014.06;4990675;28;20034;-69
2021/04/10 00:26:53;;;;;;;3.38;1.80;;;;;;;12.94;47.41;100012.22;4991662;28;20502;-69
2021/04/10 00:29:19;;;;;;;4.70;1.90;;;;;;;12.93;47.52;100014.06;4992020;28;20113;-70
2021/04/10 00:31:44;;;;;;;4.93;1.92;;;;;;;12.96;47.80;100013.69;5009814;28;20533;-70
2021/04/10 00:34:09;;;;;;;4.20;1.73;;;;;;;12.98;48.09;100026.78;5009335;28;20049;-69
2021/04/10 00:36:35;;;;;;;4.32;1.58;;;;;;;12.98;47.84;100036.59;5000531;28;20124;-69
2021/04/10 00:39:00;;;;;;;3.17;1.58;;;;;;;12.95;47.68;100037.75;4991673;28;20048;-69
2021/04/10 00:41:25;;;;;;;3.63;1.70;;;;;;;12.99;47.74;100032.91;4991583;28;20038;-70
2021/04/10 00:43:50;;;;;;;3.15;1.85;;;;;;;12.92;48.02;100048.75;5009226;28;20037;-72
2021/04/10 00:46:16;;;;;;;3.97;2.00;;;;;;;12.89;47.78;100044.59;5008179;28;20068;-70
2021/04/10 00:48:41;;;;;;;4.47;2.00;;;;;;;12.82;48.46;100042.84;5008645;28;20120;-70
2021/04/10 00:51:07;;;;;;;4.50;1.42;;;;;;;12.74;48.57;100039.25;5009560;28;20149;-70
2021/04/10 00:53:35;;;;;;;4.38;1.90;;;;;;;12.71;48.64;100036.97;5010046;28;20121;-70
2021/04/10 00:56:04;;;;;;;3.22;1.67;;;;;;;12.65;49.00;100042.13;5008680;28;20053;-70
2021/04/10 00:58:31;;;;;;;4.68;1.50;;;;;;;12.57;49.37;100028.94;5008619;28;20038;-70
2021/04/10 01:00:56;;;;;;;4.97;1.92;;;;;;;12.55;49.34;100039.72;4991735;28;20048;-70
2021/04/10 01:03:22;;;;;;;5.13;1.90;;;;;;;12.56;49.63;100032.59;5008963;28;20041;-71
2021/04/10 01:05:47;;;;;;;4.55;1.88;;;;;;;12.45;49.75;100032.00;5008431;28;20042;-70
2021/04/10 01:08:13;;;;;;;4.45;1.70;;;;;;;12.44;49.79;100037.47;5009068;28;20030;-69
2021/04/10 01:10:38;;;;;;;5.35;1.95;;;;;;;12.43;50.04;100034.00;5008979;28;20331;-69
2021/04/10 01:13:39;;;;;;;3.35;1.70;;;;;;;12.37;50.38;100023.28;5009571;28;20506;-70
2021/04/10 01:16:14;;;;;;;5.82;1.88;;;;;;;12.31;50.39;100024.81;5006160;28;20375;-70
2021/04/10 01:18:42;;;;;;;5.25;1.65;;;;;;;12.26;50.69;100027.97;4999570;28;20041;-70
2021/04/10 01:21:16;;;;;;;3.13;1.58;;;;;;;12.26;50.65;100030.63;5009375;28;20038;-69
2021/04/10 01:23:51;;;;;;;4.38;1.55;;;;;;;12.22;50.56;100025.84;5009457;28;20026;-69
2021/04/10 01:26:57;;;;;;;3.75;1.63;;;;;;;12.22;50.58;100023.19;5008213;28;20038;-69
2021/04/10 01:29:24;;;;;;;3.17;1.77;;;;;;;12.22;50.74;100026.66;4909559;29;20466;-69
2021/04/10 01:31:53;;;;;;;4.07;1.60;;;;;;;12.25;50.51;100025.50;4987859;28;20038;-69
2021/04/10 01:34:25;;;;;;;2.75;1.55;;;;;;;12.22;50.72;100020.56;5000937;28;20112;-69
2021/04/10 01:36:53;;;;;;;3.28;1.70;;;;;;;12.28;50.22;100023.34;4991291;28;20030;-70
2021/04/10 01:39:20;;;;;;;5.88;1.98;;;;;;;12.25;50.28;100026.34;5008767;28;20044;-70
2021/04/10 01:41:49;;;;;;;5.35;1.80;;;;;;;12.26;50.20;100032.47;5008528;28;20435;-69
2021/04/10 01:44:16;;;;;;;3.85;1.55;;;;;;;12.26;50.60;100040.41;5007775;28;20073;-69
2021/04/10 01:46:43;;;;;;;3.22;1.70;;;;;;;12.24;50.45;100040.59;5008803;28;20033;-69
2021/04/10 01:49:09;;;;;;;4.78;1.50;;;;;;;12.25;50.72;100041.41;5012192;28;20053;-70
2021/04/10 01:51:37;;;;;;;3.05;1.30;;;;;;;12.25;50.41;100034.28;4995153;28;20030;-70
2021/04/10 01:54:04;;;;;;;5.13;1.63;;;;;;;12.26;50.67;100041.22;5012385;28;20491;-70
2021/04/10 01:56:35;;;;;;;4.68;1.70;;;;;;;12.26;50.67;100037.75;5011821;28;20034;-69
2021/04/10 01:59:01;;;;;;;;;;;;;;;12.28;50.95;100041.06;5012622;28;20037;-69
2021/04/10 02:01:28;;;;;;;3.83;1.27;;;;;;;12.26;50.83;100037.75;5012340;28;20305;-70
2021/04/10 02:03:54;;;;;;;3.88;1.50;;;;;;;12.27;50.87;100034.91;4993965;28;20065;-70
2021/04/10 02:06:20;;;;;;;2.13;1.30;;;;;;;12.31;50.59;100046.00;4993287;28;20553;-69
2021/04/10 02:08:51;;;;;;;4.03;1.73;;;;;;;12.35;50.46;100046.47;5011345;28;20506;-70
2021/04/10 02:11:17;;;;;;;4.22;1.27;;;;;;;12.40;50.26;100041.50;5011752;28;20556;-69
2021/04/10 02:13:43;;;;;;;2.65;1.33;;;;;;;12.45;50.09;100041.78;5012710;28;20037;-70
2021/04/10 02:16:08;;;;;;;3.65;1.52;;;;;;;12.50;50.27;100045.56;5012868;28;20034;-69
2021/04/10 02:18:35;;;;;;;3.50;1.35;;;;;;;12.53;50.37;100042.53;5013833;28;20037;-69
2021/04/10 02:21:07;;;;;;;4.78;1.40;;;;;;;12.54;50.53;100038.91;5011992;28;20049;-69
2021/04/10 02:23:33;;;;;;;3.90;1.70;;;;;;;12.60;50.38;100036.53;5012670;28;20034;-69
2021/04/10 02:26:02;;;;;;;3.70;1.30;;;;;;;12.64;50.48;100033.38;5011494;28;20034;-69
2021/04/10 02:28:27;;;;;;;2.30;1.17;;;;;;;12.65;50.29;100037.66;5010595;28;20108;-70
2021/04/10 02:30:53;;;;;;;2.92;1.35;;;;;;;12.66;50.15;100041.97;5001498;28;20065;-69
2021/04/10 02:33:33;;;;;;;5.85;1.55;;;;;;;12.72;50.14;100035.94;4992719;28;20534;-70
2021/04/10 02:35:59;;;;;;;2.88;1.40;;;;;;;12.72;50.10;100035.94;4993087;28;20135;-69
2021/04/10 02:38:28;;;;;;;3.78;1.25;;;;;;;12.71;50.15;100036.13;5010349;28;20162;-70
2021/04/10 02:41:16;;;;;;;2.53;1.10;;;;;;;12.69;50.62;100035.50;5011328;28;20057;-70
2021/04/10 02:43:45;;;;;;;3.53;1.27;;;;;;;12.70;50.50;100030.00;4993682;28;20038;-70
2021/04/10 02:46:14;;;;;;;2.42;1.02;;;;;;;12.67;50.45;100032.19;5004543;28;20416;-70
2021/04/10 02:48:49;;;;;;;3.65;1.30;;;;;;;12.65;50.56;100031.53;5011037;28;20045;-69
2021/04/10 02:51:15;;;;;;;5.95;1.27;;;;;;;12.63;50.84;100029.06;5009763;28;20396;-70
2021/04/10 02:53:42;;;;;;;3.72;1.30;;;;;;;12.65;50.51;100021.75;5002118;28;20045;-70
2021/04/10 02:56:10;;;;;;;3.75;1.23;;;;;;;12.67;50.41;100019.75;5010338;28;20050;-70
2021/04/10 02:58:38;;;;;;;3.55;1.20;;;;;;;12.66;50.51;100023.41;5010029;28;20041;-70
2021/04/10 03:01:04;;;;;;;2.40;1.30;;;;;;;12.65;50.53;100024.38;5010691;28;20045;-71
2021/04/10 03:03:32;;;;;;;2.45;1.30;;;;;;;12.65;50.79;100020.91;5010797;28;20117;-69
2021/04/10 03:05:58;;;;;;;3.08;1.20;;;;;;;12.60;50.65;100016.16;5011124;28;20117;-70
2021/04/10 03:08:24;;;;;;;3.15;1.40;;;;;;;12.62;50.46;100022.09;5010580;28;20441;-69
2021/04/10 03:10:52;;;;;;;2.60;1.20;;;;;;;12.61;50.59;100022.28;5011258;28;20026;-70
2021/04/10 03:13:18;;;;;;;3.35;1.50;;;;;;;12.62;50.52;100027.41;5002800;28;20038;-69
2021/04/10 03:15:45;;;;;;;3.55;1.30;;;;;;;12.64;50.17;100037.84;5009977;28;20044;-69
2021/04/10 03:18:12;;;;;;;4.43;1.30;;;;;;;12.63;50.18;100028.22;5009459;28;20546;-70
2021/04/10 03:20:38;;;;;;;4.10;1.38;;;;;;;12.65;50.10;100029.69;5010439;28;20045;-70
2021/04/10 03:23:04;;;;;;;2.38;1.25;;;;;;;12.56;51.06;100028.13;5010394;28;20045;-69
2021/04/10 03:25:29;;;;;;;5.75;1.33;;;;;;;12.57;50.64;100024.47;5010540;28;20110;-70
2021/04/10 03:27:55;;;;;;;3.90;1.30;;;;;;;12.50;51.00;100032.28;5010404;28;20030;-69
2021/04/10 03:30:21;;;;;;;3.67;1.30;;;;;;;12.52;51.02;100027.66;5009595;28;20487;-70
2021/04/10 03:32:48;;;;;;;2.38;1.13;;;;;;;12.54;51.09;100041.56;5010231;28;20323;-70
2021/04/10 03:35:14;;;;;;;3.90;1.55;;;;;;;12.50;50.84;100042.91;5010306;28;20406;-70
2021/04/10 03:37:40;;;;;;;2.17;1.10;;;;;;;12.48;51.35;100047.56;5010456;28;20034;-70
2021/04/10 03:40:07;;;;;;;3.40;1.25;;;;;;;12.46;51.38;100051.38;4991449;28;20522;-70
2021/04/10 03:42:39;;;;;;;5.50;1.40;;;;;;;12.48;51.24;100049.38;5006244;28;20035;-70
2021/04/10 03:45:07;;;;;;;3.67;1.30;;;;;;;12.42;51.82;100050.94;5010271;28;20029;-69
2021/04/10 03:47:32;;;;;;;2.80;1.30;;;;;;;12.37;51.97;100055.94;5010591;28;20046;-69
2021/04/10 03:49:58;;;;;;;4.07;1.50;;;;;;;12.36;52.17;100061.41;5008848;28;20099;-69
2021/04/10 03:52:24;;;;;;;2.67;1.23;;;;;;;12.36;52.35;100053.44;5009149;28;20117;-70
2021/04/10 03:54:49;;;;;;;2.45;1.30;;;;;;;12.35;52.67;100054.44;4992088;28;20491;-69
2021/04/10 03:57:14;;;;;;;4.65;1.30;;;;;;;12.35;52.78;100057.09;5009640;28;20038;-70
2021/04/10 03:59:40;;;;;;;3.10;1.10;;;;;;;12.33;52.86;100065.22;5009881;28;20137;-70
2021/04/10 04:02:05;;;;;;;2.58;1.30;;;;;;;12.30;53.32;100063.75;5009571;28;20049;-70
2021/04/10 04:04:30;;;;;;;2.33;1.33;;;;;;;12.34;53.83;100066.88;5010644;28;20030;-70
2021/04/10 04:06:56;;;;;;;4.75;1.30;;;;;;;12.32;54.34;100072.38;4987404;28;20065;-69
2021/04/10 04:09:21;;;;;;;2.92;1.40;;;;;;;12.33;54.48;100065.22;4999703;28;20024;-69
2021/04/10 04:11:46;;;;;;;3.72;1.42;;;;;;;12.29;54.94;100061.25;5009547;28;20402;-70
2021/04/10 04:14:11;;;;;;;6.32;1.55;;;;;;;12.33;55.40;100073.19;5010451;28;20041;-69
2021/04/10 04:16:37;;;;;;;3.55;1.70;;;;;;;12.30;55.95;100068.25;5009452;28;20052;-73
2021/04/10 04:19:02;;;;;;;3.35;1.42;;;;;;;12.30;55.83;100073.53;5010399;28;20060;-69
2021/04/10 04:21:27;;;;;;;2.72;1.38;;;;;;;12.22;57.04;100077.03;5009959;28;20055;-69
2021/04/10 04:23:52;;;;;;;6.00;1.48;;;;;;;12.30;56.49;100078.84;5008646;28;20033;-69
2021/04/10 04:26:18;;;;;;;2.45;1.30;;;;;;;12.29;57.03;100077.16;5007776;28;20068;-69
2021/04/10 04:28:43;;;;;;;3.20;1.63;;;;;;;12.30;57.05;100079.66;5005856;28;20038;-69
2021/04/10 04:31:08;;;;;;;3.92;1.52;;;;;;;12.30;56.79;100086.78;5005395;28;20349;-70
2021/04/10 04:33:34;;;;;;;3.65;1.70;;;;;;;12.32;57.19;100092.72;5006100;28;20041;-69
2021/04/10 04:35:59;;;;;;;5.07;1.60;;;;;;;12.21;58.76;100096.59;5005292;28;20121;-69
2021/04/10 04:38:24;;;;;;;7.95;2.10;;;;;;;12.22;57.87;100108.84;5004079;28;20030;-69
2021/04/10 04:40:50;;;;;;;8.48;2.45;;;;;;;12.25;57.92;100103.22;5008033;28;20407;-69
2021/04/10 04:43:15;;;;;;;5.80;1.70;;;;;;;12.20;58.22;100113.50;5007659;28;20041;-69
2021/04/10 04:45:40;;;;;;;7.35;2.15;;;;;;;12.31;57.75;100107.00;5007061;28;20583;-72
2021/04/10 04:48:06;;;;;;;4.60;1.80;;;;;;;12.36;57.27;100114.44;4989534;28;20038;-70
2021/04/10 04:50:31;;;;;;;3.97;1.60;;;;;;;12.27;58.15;100121.59;5007885;28;20026;-69
2021/04/10 04:52:56;;;;;;;3.83;1.70;;;;;;;12.23;57.64;100122.94;5007336;28;20404;-69
2021/04/10 04:55:22;;;;;;;6.15;1.90;;;;;;;12.27;57.14;100126.88;5007977;28;20038;-69
2021/04/10 04:57:47;;;;;;;3.28;1.70;;;;;;;12.12;58.55;100134.75;5007264;28;20041;-69
2021/04/10 05:00:13;;;;;;;7.20;1.90;;;;;;;12.24;57.11;100133.38;4988052;28;20026;-69
2021/04/10 05:02:38;;;;;;;4.80;1.77;;;;;;;12.18;57.38;100138.50;5007587;28;20064;-69
2021/04/10 05:05:04;;;;;;;6.45;1.90;;;;;;;12.10;57.59;100136.72;5006263;28;20061;-69
2021/04/10 05:07:29;;;;;;;6.40;1.77;;;;;;;12.09;57.93;100146.50;5009394;28;20073;-69
2021/04/10 05:09:55;;;;;;;3.95;1.60;;;;;;;12.14;57.31;100143.34;4998094;28;20040;-69
2021/04/10 05:12:20;;;;;;;4.72;1.88;;;;;;;12.15;56.98;100155.59;5008330;28;20519;-69
2021/04/10 05:14:45;;;;;;;3.63;1.60;;;;;;;12.11;57.37;100155.13;4974653;28;20399;-69
2021/04/10 05:17:11;;;;;;;5.68;1.65;;;;;;;12.09;57.46;100154.47;5003783;28;20450;-69
2021/04/10 05:19:36;;;;;;;4.43;1.63;;;;;;;12.17;56.83;100158.09;5009476;28;20186;-70
2021/04/10 05:22:01;;;;;;;6.95;2.00;;;;;;;12.17;57.00;100161.56;5010285;28;20033;-70
2021/04/10 05:24:27;;;;;;;5.43;1.70;;;;;;;12.08;57.32;100158.13;5015364;28;20061;-70
2021/04/10 05:26:52;;;;;;;4.93;1.52;;;;;;;12.06;57.48;100161.91;5014839;28;20034;-69
2021/04/10 05:29:17;;;;;;;3.08;1.35;;;;;;;11.97;58.79;100168.25;5014497;28;20427;-69
2021/04/10 05:31:43;;;;;;;3.53;1.50;;;;;;;11.99;57.95;100180.34;5011754;28;20121;-69
2021/04/10 05:34:08;;;;;;;3.95;1.42;;;;;;;11.94;58.25;100176.53;4993836;28;20034;-69
2021/04/10 05:36:33;;;;;;;2.88;1.20;;;;;;;11.97;57.47;100184.97;5012028;28;20124;-69
2021/04/10 05:38:59;;;;;;;4.47;1.77;;;;;;;11.98;57.28;100188.44;5011673;28;20029;-69
2021/04/10 05:41:24;;;;;;;4.10;1.63;;;;;;;12.03;57.20;100189.59;5011860;28;20053;-69
2021/04/10 05:43:49;;;;;;;5.40;1.77;;;;;;;12.01;58.09;100183.66;4994292;28;20073;-69
2021/04/10 05:46:15;;;;;;;4.00;1.67;;;;;;;11.99;57.58;100193.59;5011217;28;20567;-69
2021/04/10 05:48:40;;;;;;;3.65;1.58;;;;;;;11.94;57.31;100203.03;5011820;28;20049;-69
2021/04/10 05:51:05;;;;;;;4.50;1.50;;;;;;;11.93;57.59;100202.19;5012130;28;20124;-69
2021/04/10 05:53:31;;;;;;;2.88;1.40;;;;;;;11.89;58.22;100203.53;5012602;28;20516;-69
2021/04/10 05:55:56;;;;;;;3.53;1.20;;;;;;;11.86;58.77;100209.97;5011613;28;20562;-69
2021/04/10 05:58:22;;;;;;;5.90;1.55;;;;;;;11.86;57.17;100207.31;5011254;28;20042;-70
2021/04/10 06:00:47;;;;;;;3.60;1.55;;;;;;;11.87;57.14;100208.19;5011088;28;20088;-70
2021/04/10 06:03:14;;;;;;;4.43;1.33;;;;;;;11.87;56.74;100221.44;5011856;28;20112;-69
2021/04/10 06:05:43;;;;;;;3.30;1.60;;;;;;;11.86;56.59;100220.56;5012081;28;20113;-69
2021/04/10 06:08:08;;;;;;;4.55;1.20;;;;;;;11.81;56.74;100212.28;5011244;28;20491;-69
2021/04/10 06:10:33;;;;;;;3.10;1.20;;;;;;;11.78;57.10;100225.88;5011763;28;20044;-69
2021/04/10 06:12:59;;;;;;;3.95;1.80;;;;;;;11.75;57.09;100225.38;5011980;28;20038;-69
2021/04/10 06:15:24;;;;;;;5.30;1.63;;;;;;;11.74;57.39;100232.50;5012765;28;20037;-69
2021/04/10 06:17:50;;;;;;;4.75;1.38;;;;;;;11.73;57.32;100230.84;5011902;28;20414;-69
2021/04/10 06:20:17;;;;;;;2.15;1.10;;;;;;;11.73;57.13;100237.94;5012302;28;20046;-69
2021/04/10 06:22:42;;;;;;;3.45;1.40;;;;;;;11.74;57.41;100250.22;5012562;28;20038;-69
2021/04/10 06:25:09;;;;;;;3.50;1.00;;;;;;;11.69;57.83;100245.41;4993997;28;20151;-69
2021/04/10 06:27:35;;;;;;;5.00;1.27;;;;;;;11.63;57.80;100246.91;4993933;28;20073;-69
2021/04/10 06:30:00;;;;;;;4.22;1.20;;;;;;;11.72;57.54;100253.00;5010987;28;20038;-69
2021/04/10 06:32:26;;;;;;;5.70;1.10;;;;;;;11.72;57.92;100250.38;5010807;28;20042;-68
2021/04/10 06:34:51;;;;;;;5.22;1.20;;;;;;;11.73;57.86;100261.78;5010580;28;20121;-69
2021/04/10 06:37:16;;;;;;;3.28;1.20;;;;;;;11.73;57.74;100264.44;5011375;28;20034;-69
2021/04/10 06:39:43;;;;;;;3.75;1.20;;;;;;;11.68;57.95;100260.47;4993874;28;20042;-69
2021/04/10 06:42:08;;;;;;;3.17;1.70;;;;;;;11.63;58.73;100267.25;5011092;28;20038;-69
2021/04/10 06:44:34;;;;;;;8.80;1.50;;;;;;;11.63;58.13;100268.09;5006912;28;20458;-69
2021/04/10 06:47:02;;;;;;;3.15;1.17;;;;;;;11.65;57.99;100276.69;4993344;28;20395;-69
2021/04/10 06:49:31;;;;;;;3.50;1.20;;;;;;;11.68;58.21;100281.66;5011026;28;20044;-69
2021/04/10 06:51:59;;;;;;;4.68;1.50;;;;;;;11.56;58.74;100277.69;4994262;28;20041;-69
2021/04/10 06:54:30;;;;;;;3.22;1.08;;;;;;;11.66;58.23;100285.47;5010365;28;20117;-69
2021/04/10 06:57:27;;;;;;;3.47;1.10;;;;;;;11.63;58.21;100288.44;4998200;28;20140;-69
2021/04/10 06:59:59;;;;;;;2.63;1.10;;;;;;;11.54;58.09;100282.31;4992729;28;20133;-69
2021/04/10 07:02:26;;;;;;;2.05;0.90;;;;;;;11.48;58.62;100288.25;5010554;28;20042;-69
2021/04/10 07:04:55;;;;;;;2.22;1.20;;;;;;;11.61;57.71;100290.44;5009028;28;20105;-69
2021/04/10 07:07:21;;;;;;;2.97;0.95;;;;;;;11.54;57.61;100294.75;5000781;28;20402;-69
2021/04/10 07:09:46;;;;;;;2.13;1.20;;;;;;;11.51;57.74;100287.94;5010937;28;20116;-69
2021/04/10 07:12:12;;;;;;;3.33;0.90;;;;;;;11.42;59.01;100289.75;4992465;28;20037;-69
2021/04/10 07:14:37;;;;;;;3.38;1.00;;;;;;;11.52;58.16;100294.06;4992108;28;20038;-69
2021/04/10 07:17:02;;;;;;;3.55;1.20;;;;;;;11.64;57.71;100298.88;4992476;28;20099;-69
2021/04/10 07:19:29;;;;;;;5.00;1.30;;;;;;;11.57;58.36;100300.53;5010362;28;20045;-69
2021/04/10 07:22:06;;;;;;;3.58;1.20;;;;;;;11.45;59.30;100299.19;5011046;28;20431;-69
2021/04/10 07:24:52;;;;;;;1.50;0.88;;;;;;;11.14;63.05;100294.47;5010216;28;20033;-69
2021/04/10 07:27:24;;;;;;;2.03;1.10;;;;;;;11.12;61.02;100306.22;5010598;28;20030;-70
2021/04/10 07:29:51;;;;;;;4.00;1.17;;;;;;;11.00;62.16;100295.09;5011167;28;20446;-69
2021/04/10 07:32:36;;;;;;;3.92;1.10;;;;;;;10.84;63.60;100302.00;5009380;28;20038;-69
2021/04/10 07:35:08;;;;;;;4.97;1.30;;;;;;;10.74;63.91;100295.16;5009903;28;20088;-70
2021/04/10 07:37:41;;;;;;;3.28;1.42;;;;;;;10.67;64.65;100302.06;4992959;28;20040;-69
2021/04/10 07:40:09;;;;;;;3.28;1.02;;;;;;;10.52;67.34;100302.66;5009616;28;20044;-70
2021/04/10 07:42:39;;;;;;;6.43;1.40;;;;;;;10.46;66.47;100311.19;5010464;28;20033;-70
2021/04/10 07:45:21;;;;;;;3.92;1.60;;;;;;;10.41;66.06;100319.59;5010074;28;20070;-70
2021/04/10 07:47:46;;;;;;;3.17;1.70;;;;;;;10.41;67.29;100318.78;5010923;28;20049;-70
2021/04/10 07:50:19;;;;;;;3.40;1.33;;;;;;;10.36;67.00;100321.06;5010287;28;20135;-70
2021/04/10 07:52:45;;;;;;;4.22;1.65;;;;;;;10.37;67.42;100326.19;5010527;28;20096;-70
2021/04/10 07:55:32;;;;;;;4.93;1.70;;;;;;;10.30;67.88;100325.16;5010927;28;20037;-70
2021/04/10 07:58:20;;;;;;;3.38;1.35;;;;;;;10.31;68.07;100325.97;5011331;28;20034;-70
2021/04/10 08:00:46;;;;;;;3.97;1.40;;;;;;;10.30;68.30;100322.50;5010690;28;20066;-68
2021/04/10 08:03:21;;;;;;;3.13;1.30;;;;;;;10.41;68.03;100334.63;5011981;28;20108;-70
2021/04/10 08:05:46;;;;;;;2.95;1.25;;;;;;;10.34;70.22;100331.78;5004897;28;20362;-70
2021/04/10 08:08:18;;;;;;;4.30;1.50;;;;;;;10.52;68.54;100331.72;5011022;28;20453;-70
2021/04/10 08:10:44;;;;;;;3.25;1.52;;;;;;;10.54;67.90;100339.53;5011620;28;20030;-69
2021/04/10 08:13:09;;;;;;;3.47;1.48;;;;;;;10.49;67.75;100336.53;5005663;28;20034;-70
2021/04/10 08:15:35;;;;;;;4.88;1.30;;;;;;;10.51;67.95;100330.09;5012641;28;20380;-71
2021/04/10 08:18:00;;;;;;;1.42;0.93;;;;;;;10.38;69.70;100341.06;5012641;28;20041;-70
2021/04/10 08:20:30;;;;;;;5.88;1.52;;;;;;;10.41;68.69;100343.38;5012690;28;20030;-71
2021/04/10 08:23:22;;;;;;;2.85;1.17;;;;;;;10.39;68.53;100336.59;5013125;28;20427;-70
2021/04/10 08:25:48;;;;;;;2.53;1.20;;;;;;;10.32;70.50;100333.75;5012969;28;20227;-70
2021/04/10 08:28:15;;;;;;;2.72;0.95;;;;;;;10.32;70.34;100336.41;5014083;28;20057;-70
2021/04/10 08:30:41;;;;;;;2.30;1.10;;;;;;;10.26;68.66;100336.16;5018935;28;20033;-70
2021/04/10 08:33:07;;;;;;;2.60;1.15;;;;;;;10.16;70.61;100347.66;4993287;28;20034;-71
2021/04/10 08:35:32;;;;;;;3.80;1.38;;;;;;;10.19;69.48;100343.88;5018826;28;20065;-70
2021/04/10 08:38:00;;;;;;;3.53;1.40;;;;;;;10.10;71.23;100347.44;5018506;28;20041;-71
2021/04/10 08:40:26;;;;;;;3.58;1.30;;;;;;;9.98;74.20;100345.00;5015840;28;20050;-71
2021/04/10 08:42:56;;;;;;;5.68;1.23;;;;;;;10.00;71.06;100348.34;5018206;28;20438;-71
2021/04/10 08:45:36;;;;;;;3.45;1.60;;;;;;;9.89;73.31;100353.88;5018833;28;20034;-71
2021/04/10 08:48:06;;;;;;;4.25;1.50;;;;;;;9.86;72.67;100348.06;5016068;28;20030;-71
2021/04/10 08:50:35;;;;;;;3.53;1.50;;;;;;;9.89;73.53;100356.50;4999166;28;20372;-70
2021/04/10 08:53:10;;;;;;;2.65;1.20;;;;;;;9.88;74.71;100352.19;5016273;28;20044;-70
2021/04/10 08:55:39;;;;;;;3.63;1.50;;;;;;;9.97;73.95;100361.03;5016540;28;20038;-70
2021/04/10 08:58:18;;;;;;;5.45;1.60;;;;;;;9.94;73.40;100359.53;5018538;28;20293;-70
2021/04/10 09:00:44;;;;;;;5.40;2.10;;;;;;;10.02;72.39;100355.31;5019021;28;20038;-70
2021/04/10 09:03:09;;;;;;;4.38;1.50;;;;;;;10.14;71.82;100356.72;5019541;28;20061;-70
2021/04/10 09:05:52;;;;;;;3.53;1.60;;;;;;;10.35;70.75;100354.59;5019407;28;20072;-70
2021/04/10 09:08:29;;;;;;;3.40;1.50;;;;;;;10.52;69.74;100352.88;5015862;28;20030;-71
2021/04/10 09:10:56;;;;;;;3.47;1.55;;;;;;;10.63;69.78;100360.56;5001311;28;20033;-70
2021/04/10 09:13:26;;;;;;;3.13;1.45;;;;;;;10.70;69.00;100360.78;5019912;28;20033;-70
2021/04/10 09:16:21;;;;;;;3.00;1.60;;;;;;;10.79;68.58;100358.97;5019335;28;20054;-71
2021/04/10 09:18:51;;;;;;;5.47;1.50;;;;;;;10.84;68.04;100357.53;5019246;28;20041;-70
2021/04/10 09:21:16;;;;;;;3.90;1.60;;;;;;;10.85;67.63;100361.00;5018955;28;20458;-70
2021/04/10 09:23:47;;;;;;;3.53;1.67;;;;;;;10.87;67.81;100361.69;5019777;28;20042;-70
2021/04/10 09:26:13;;;;;;;4.38;1.70;;;;;;;10.84;67.83;100365.47;5000106;28;20046;-70
2021/04/10 09:28:54;;;;;;;4.10;1.83;;;;;;;10.81;68.11;100362.31;5008019;28;20049;-71
2021/04/10 09:31:49;;;;;;;2.60;1.50;;;;;;;10.82;68.24;100363.94;5017875;28;20053;-70
2021/04/10 09:34:47;;;;;;;3.20;1.77;;;;;;;10.88;67.55;100367.81;5016550;28;20045;-70
2021/04/10 09:37:19;;;;;;;4.78;1.73;;;;;;;10.91;67.04;100364.84;5014974;28;20046;-70
2021/04/10 09:40:02;;;;;;;2.80;1.58;;;;;;;10.92;67.06;100361.22;5017634;28;20042;-70
2021/04/10 09:42:34;;;;;;;3.38;1.60;;;;;;;10.90;68.66;100368.47;5005615;28;20034;-70
2021/04/10 09:45:19;;;;;;;2.33;1.20;;;;;;;10.96;66.70;100362.53;5017233;28;20531;-70
2021/04/10 09:48:00;;;;;;;3.25;1.50;;;;;;;11.01;65.36;100362.88;5000201;28;20030;-71
2021/04/10 09:50:35;;;;;;;3.67;1.38;;;;;;;10.97;65.76;100356.28;5019995;28;20053;-70
2021/04/10 09:53:05;;;;;;;3.05;1.30;;;;;;;10.94;64.82;100352.13;5017620;28;20068;-70
2021/04/10 09:55:36;;;;;;;2.80;1.20;;;;;;;11.04;65.01;100357.31;5022794;28;20455;-70
2021/04/10 09:58:09;;;;;;;3.08;1.70;;;;;;;11.13;64.28;100352.84;5025453;28;20538;-70
2021/04/10 10:00:35;;;;;;;1.80;1.10;;;;;;;11.20;64.30;100360.00;5002596;28;20046;-69
2021/04/10 10:03:02;;;;;;;3.15;1.67;;;;;;;11.21;64.21;100359.00;4999274;28;20045;-70
2021/04/10 10:05:33;;;;;;;4.90;1.27;;;;;;;11.24;64.35;100356.03;5005262;28;20044;-70
2021/04/10 10:08:16;;;;;;;4.57;1.40;;;;;;;11.22;64.02;100354.53;5005897;28;20038;-70
2021/04/10 10:10:47;;;;;;;1.98;1.30;;;;;;;11.17;64.23;100355.03;5018630;28;20036;-69
2021/04/10 10:13:17;;;;;;;;;;;;;;;11.19;64.25;100354.88;5005164;28;20034;-69
2021/04/10 10:15:43;;;;;;;4.25;1.35;;;;;;;11.19;64.09;100355.69;5021493;28;20409;-69
2021/04/10 10:18:31;;;;;;;4.63;1.60;;;;;;;11.13;64.23;100361.63;5025001;28;20034;-69
2021/04/10 10:21:13;;;;;;;2.13;1.33;;;;;;;11.11;64.46;100365.41;5024476;28;20422;-69
2021/04/10 10:23:50;;;;;;;1.70;1.20;;;;;;;11.02;64.54;100360.09;5015711;28;20041;-70
2021/04/10 10:26:27;;;;;;;2.58;1.45;;;;;;;11.09;64.33;100368.22;5021802;28;20049;-69
2021/04/10 10:29:01;;;;;;;3.20;1.38;;;;;;;11.10;64.41;100364.59;5022704;28;20053;-69
2021/04/10 10:31:30;;;;;;;3.03;1.35;;;;;;;11.06;64.44;100365.91;5009610;28;20037;-69
2021/04/10 10:34:04;;;;;;;2.80;1.60;;;;;;;11.13;63.41;100366.94;5023167;28;20410;-69
2021/04/10 10:36:33;;;;;;;3.10;1.27;;;;;;;11.04;64.12;100365.25;5023866;28;20033;-69
2021/04/10 10:38:59;;;;;;;4.47;1.42;;;;;;;11.08;64.00;100358.63;5014065;28;20073;-70
2021/04/10 10:41:24;;;;;;;4.20;1.33;;;;;;;11.03;64.68;100359.09;5024352;28;20030;-69
2021/04/10 10:43:49;;;;;;;2.25;1.30;;;;;;;11.12;63.84;100354.69;5026765;28;20037;-69
2021/04/10 10:46:20;;;;;;;2.20;1.30;;;;;;;11.16;63.97;100355.19;5024359;28;20183;-69
2021/04/10 10:48:46;;;;;;;2.03;1.27;;;;;;;11.10;64.31;100350.53;5021721;28;20238;-70
2021/04/10 10:51:18;;;;;;;2.72;1.65;;;;;;;11.09;64.71;100354.19;5013455;28;20072;-69
2021/04/10 10:53:49;;;;;;;2.63;1.60;;;;;;;11.18;64.65;100350.56;5017621;28;20031;-69
2021/04/10 10:56:28;;;;;;;;;;;;;;;11.21;64.58;100348.44;5022575;28;20128;-69
2021/04/10 10:59:02;;;;;;;4.05;1.80;;;;;;;11.19;64.47;100350.41;5021214;28;19976;-69
2021/04/10 11:01:34;;;;;;;3.78;1.42;;;;;;;11.20;65.13;100352.06;5023786;28;20064;-69
2021/04/10 11:04:05;;;;;;;4.00;2.13;;;;;;;11.29;64.44;100350.25;5023096;28;20056;-69
2021/04/10 11:06:43;;;;;;;4.57;2.10;;;;;;;11.31;64.63;100347.47;5015648;28;20038;-70
2021/04/10 11:09:11;;;;;;;5.05;1.90;;;;;;;11.40;64.27;100349.16;5017322;28;20057;-69
2021/04/10 11:11:40;;;;;;;3.92;1.90;;;;;;;11.38;64.99;100343.19;5022861;28;20038;-69
2021/04/10 11:14:06;;;;;;;3.10;1.80;;;;;;;11.46;64.38;100345.84;5023121;28;20069;-70
2021/04/10 11:16:32;;;;;;;3.35;1.70;;;;;;;11.53;64.10;100343.38;5025417;28;20033;-69
2021/04/10 11:18:59;;;;;;;3.00;1.52;;;;;;;11.50;64.03;100339.25;5024503;28;20045;-69
2021/04/10 11:21:31;;;;;;;2.63;1.67;;;;;;;11.52;63.80;100339.09;5012815;28;20092;-69
2021/04/10 11:24:01;;;;;;;5.05;2.03;;;;;;;11.59;63.51;100338.25;5022498;28;20334;-69
2021/04/10 11:26:45;;;;;;;3.40;1.90;;;;;;;11.52;62.96;100328.50;5025416;28;20038;-69
2021/04/10 11:29:20;;;;;;;5.45;1.88;;;;;;;11.53;62.89;100330.97;5023642;28;20041;-69
2021/04/10 11:32:15;;;;;;;5.07;2.10;;;;;;;11.53;63.52;100330.13;5006403;28;20514;-69
2021/04/10 11:34:46;;;;;;;4.25;1.98;;;;;;;11.53;63.18;100330.97;5004929;28;20061;-69